Terminal Aerodrome Forecast
Issued by NWS Lake Charles, LA

Home | Current Version | Previous Version | Text Only | Print | Product List | Glossary On
Versions: 1 2 3 4 5 6 7 8 9 10 11 12 13
000
FTUS44 KLCH 271000 AAA
TAFLFT
TAF AMD
KLFT 271028Z 2710/2806 VRB03KT P6SM VCSH BKN007 OVC014
      TEMPO 2710/2714 2SM SHRA BR
     FM271400 12006KT 4SM -SHRA BR VCTS OVC007CB
     FM271800 18008KT 4SM -TSRA BR OVC007CB=

USA.gov is the U.S. government's official web portal to all federal, state and local government web resources and services.